Time;durP1;ratioP1;P1;durP2;ratioP2;P2;SDS_P1;SDS_P2;PMS_P1;PMS_P2;Temp;Humidity;BMP_temperature;BMP_pressure;BME280_temperature;BME280_humidity;BME280_pressure;Samples;Min_cycle;Max_cycle;Signal;HPM_P1;HPM_P2
2022/03/20 00:01:57;;;;;;;17.58;7.97;;;3.60;78.30;;;;;;4128187;28;20294;-79
2022/03/20 00:03:58;;;;;;;17.90;7.90;;;3.60;78.30;;;;;;4111142;28;20053;-78
2022/03/20 00:05:59;;;;;;;21.00;8.98;;;3.60;78.30;;;;;;4130985;28;20045;-78
2022/03/20 00:07:59;;;;;;;21.70;9.02;;;3.60;78.20;;;;;;4127421;28;20038;-78
2022/03/20 00:10:01;;;;;;;20.65;8.40;;;3.60;78.20;;;;;;4128156;28;20101;-78
2022/03/20 00:12:01;;;;;;;21.98;8.30;;;3.60;78.20;;;;;;4128170;28;20378;-79
2022/03/20 00:14:02;;;;;;;30.05;9.77;;;3.60;78.20;;;;;;4146925;28;20123;-79
2022/03/20 00:16:05;;;;;;;26.33;10.18;;;3.60;78.20;;;;;;4127438;28;20038;-79
2022/03/20 00:18:06;;;;;;;25.80;9.82;;;3.60;78.20;;;;;;4131915;28;20582;-79
2022/03/20 00:20:07;;;;;;;29.20;10.82;;;3.60;78.30;;;;;;4148338;28;20100;-79
2022/03/20 00:22:08;;;;;;;21.88;10.32;;;3.70;78.50;;;;;;4131349;28;20146;-79
2022/03/20 00:24:08;;;;;;;29.42;11.73;;;3.70;78.70;;;;;;4108894;28;20054;-79
2022/03/20 00:26:09;;;;;;;28.40;11.55;;;3.70;78.80;;;;;;4110968;28;20405;-79
2022/03/20 00:28:11;;;;;;;26.92;11.52;;;3.70;78.90;;;;;;4129505;28;20019;-79
2022/03/20 00:30:12;;;;;;;28.70;10.70;;;3.70;79.20;;;;;;4126888;28;20030;-79
2022/03/20 00:32:13;;;;;;;26.02;9.82;;;3.70;79.30;;;;;;4131852;28;20057;-79
2022/03/20 00:34:14;;;;;;;25.88;10.88;;;3.70;79.30;;;;;;4130990;28;20030;-79
2022/03/20 00:36:15;;;;;;;28.00;9.88;;;3.70;79.50;;;;;;4143096;28;20483;-78
2022/03/20 00:38:15;;;;;;;22.90;10.30;;;3.70;79.60;;;;;;4129093;28;20105;-78
2022/03/20 00:40:16;;;;;;;28.75;9.70;;;3.70;79.60;;;;;;4148756;28;20029;-78
2022/03/20 00:42:16;;;;;;;21.85;8.98;;;3.70;79.60;;;;;;4127325;28;20596;-78
2022/03/20 00:44:17;;;;;;;22.75;9.55;;;3.70;79.70;;;;;;4127925;28;20072;-78
2022/03/20 00:46:19;;;;;;;21.75;8.93;;;3.70;79.70;;;;;;4125485;28;20069;-79
2022/03/20 00:48:19;;;;;;;26.15;9.02;;;3.70;79.70;;;;;;4129271;28;20057;-79
2022/03/20 00:50:21;;;;;;;18.05;8.43;;;3.70;79.80;;;;;;4150270;28;20026;-79
2022/03/20 00:52:22;;;;;;;25.20;9.68;;;3.70;79.90;;;;;;4127806;28;20074;-78
2022/03/20 00:54:24;;;;;;;24.63;9.05;;;3.70;80.00;;;;;;4124888;28;20014;-79
2022/03/20 00:56:26;;;;;;;21.73;10.10;;;3.70;79.90;;;;;;4113660;28;20129;-79
2022/03/20 00:58:26;;;;;;;21.27;8.00;;;3.70;80.00;;;;;;4108866;28;20026;-78
2022/03/20 01:00:27;;;;;;;22.17;7.47;;;3.70;80.10;;;;;;4128411;28;20447;-78
2022/03/20 01:02:27;;;;;;;22.48;8.48;;;3.70;80.10;;;;;;4126668;28;20038;-78
2022/03/20 01:04:28;;;;;;;22.35;8.00;;;3.70;80.10;;;;;;4116250;28;20141;-78
2022/03/20 01:06:29;;;;;;;21.55;7.43;;;3.70;80.10;;;;;;4129675;28;20110;-78
2022/03/20 01:08:30;;;;;;;21.23;7.88;;;3.70;80.10;;;;;;4140643;28;20041;-77
2022/03/20 01:10:31;;;;;;;20.30;7.85;;;3.70;80.10;;;;;;4130721;28;20034;-78
2022/03/20 01:12:35;;;;;;;17.33;7.78;;;3.70;80.20;;;;;;4114401;28;20038;-78
2022/03/20 01:14:35;;;;;;;22.48;8.27;;;3.80;80.20;;;;;;4127901;28;20026;-78
2022/03/20 01:16:36;;;;;;;25.55;9.50;;;3.70;80.10;;;;;;4128690;28;20056;-78
2022/03/20 01:18:37;;;;;;;19.05;9.02;;;3.70;80.10;;;;;;4123588;28;20029;-78
2022/03/20 01:20:38;;;;;;;23.05;7.95;;;3.70;80.10;;;;;;4128167;28;20575;-79
2022/03/20 01:22:39;;;;;;;21.75;6.97;;;3.80;80.10;;;;;;4132278;28;20034;-79
2022/03/20 01:24:39;;;;;;;20.83;6.50;;;3.80;80.10;;;;;;4107278;28;20046;-78
2022/03/20 01:26:40;;;;;;;19.85;6.45;;;3.80;80.80;;;;;;4123406;28;20018;-79
2022/03/20 01:28:41;;;;;;;25.15;7.00;;;3.80;79.90;;;;;;4129530;28;20026;-79
2022/03/20 01:30:42;;;;;;;21.20;7.45;;;3.80;79.90;;;;;;4147565;28;20030;-79
2022/03/20 01:32:42;;;;;;;21.38;7.78;;;3.80;79.90;;;;;;4129583;28;20403;-79
2022/03/20 01:34:44;;;;;;;21.20;8.45;;;3.70;79.80;;;;;;4131212;28;20033;-79
2022/03/20 01:36:45;;;;;;;20.13;7.70;;;3.70;79.80;;;;;;4123631;28;20444;-79
2022/03/20 01:38:45;;;;;;;21.60;8.40;;;3.70;79.80;;;;;;4109953;28;20030;-79
2022/03/20 01:40:47;;;;;;;23.25;8.05;;;3.70;79.90;;;;;;4131406;28;20546;-79
2022/03/20 01:42:48;;;;;;;27.33;7.53;;;3.70;79.70;;;;;;4130212;28;20123;-79
2022/03/20 01:44:48;;;;;;;21.60;7.93;;;3.70;79.70;;;;;;4125062;28;20985;-79
2022/03/20 01:46:51;;;;;;;23.90;8.20;;;3.70;79.60;;;;;;4146589;28;20037;-79
2022/03/20 01:48:51;;;;;;;21.20;7.90;;;3.70;79.70;;;;;;4129849;28;20042;-79
2022/03/20 01:50:53;;;;;;;19.10;8.00;;;3.70;79.70;;;;;;4127489;28;20052;-79
2022/03/20 01:52:54;;;;;;;26.15;8.60;;;3.70;79.80;;;;;;4122318;28;20117;-79
2022/03/20 01:54:55;;;;;;;21.27;8.93;;;3.70;79.70;;;;;;4108227;28;20031;-79
2022/03/20 01:56:55;;;;;;;26.38;9.27;;;3.60;79.60;;;;;;4107755;28;20113;-79
2022/03/20 01:58:57;;;;;;;29.98;9.02;;;3.60;79.70;;;;;;4125272;28;20373;-79
2022/03/20 02:00:59;;;;;;;33.38;9.60;;;3.60;79.70;;;;;;4109997;28;20519;-79
2022/03/20 02:02:59;;;;;;;24.33;9.52;;;3.60;79.70;;;;;;4109059;28;20066;-79
2022/03/20 02:05:01;;;;;;;27.98;9.10;;;3.60;79.80;;;;;;4108421;28;20030;-79
2022/03/20 02:07:03;;;;;;;26.20;9.43;;;3.60;79.80;;;;;;4111730;28;20031;-79
2022/03/20 02:09:04;;;;;;;20.73;8.82;;;3.50;79.80;;;;;;4119175;28;20054;-79
2022/03/20 02:11:04;;;;;;;24.33;9.90;;;3.50;79.90;;;;;;4110589;28;20034;-79
2022/03/20 02:13:05;;;;;;;23.67;9.75;;;3.50;79.90;;;;;;4147342;28;20417;-79
2022/03/20 02:15:09;;;;;;;22.98;9.75;;;3.50;79.90;;;;;;4124405;28;20043;-79
2022/03/20 02:17:10;;;;;;;20.67;9.45;;;3.50;79.90;;;;;;4147278;28;20034;-79
2022/03/20 02:19:13;;;;;;;25.38;10.63;;;3.50;79.90;;;;;;4107852;28;20046;-79
2022/03/20 02:21:15;;;;;;;21.55;9.48;;;3.50;79.80;;;;;;4125706;28;20050;-79
2022/03/20 02:23:17;;;;;;;24.25;9.65;;;3.50;79.90;;;;;;4117957;28;20047;-79
2022/03/20 02:25:18;;;;;;;25.95;9.85;;;3.50;79.70;;;;;;4110360;28;20038;-78
2022/03/20 02:27:22;;;;;;;27.63;11.07;;;3.40;79.70;;;;;;4127441;28;20959;-79
2022/03/20 02:29:22;;;;;;;19.90;8.82;;;3.40;79.70;;;;;;4125048;28;20022;-78
2022/03/20 02:31:23;;;;;;;29.08;10.88;;;3.40;79.60;;;;;;4111682;28;20023;-78
2022/03/20 02:33:27;;;;;;;24.75;9.95;;;3.40;79.50;;;;;;4114823;28;20034;-78
2022/03/20 02:35:31;;;;;;;18.85;8.57;;;3.40;79.60;;;;;;4123071;28;20062;-78
2022/03/20 02:37:33;;;;;;;24.65;10.48;;;3.40;79.60;;;;;;4130811;28;20035;-80
2022/03/20 02:39:35;;;;;;;29.08;11.02;;;3.40;79.80;;;;;;4108736;28;20828;-79
2022/03/20 02:41:37;;;;;;;22.90;11.80;;;3.40;79.80;;;;;;4125055;28;20050;-79
2022/03/20 02:43:39;;;;;;;24.42;12.00;;;3.40;79.80;;;;;;4108774;28;20038;-79
2022/03/20 02:45:40;;;;;;;31.90;12.57;;;3.40;79.60;;;;;;4108819;28;20501;-80
2022/03/20 02:47:44;;;;;;;33.17;12.77;;;3.40;79.50;;;;;;4122830;28;20495;-79
2022/03/20 02:49:45;;;;;;;20.77;10.52;;;3.40;79.50;;;;;;4128958;28;20411;-79
2022/03/20 02:51:45;;;;;;;23.13;10.30;;;3.30;79.60;;;;;;4107393;28;20073;-79
2022/03/20 02:53:47;;;;;;;35.72;12.68;;;3.40;79.60;;;;;;4123150;28;20050;-79
2022/03/20 02:55:48;;;;;;;26.45;11.90;;;3.40;79.70;;;;;;4125294;28;20508;-79
2022/03/20 02:57:50;;;;;;;26.67;11.63;;;3.40;79.80;;;;;;4127932;28;20026;-79
2022/03/20 02:59:50;;;;;;;24.80;11.35;;;3.40;79.70;;;;;;4112687;28;20496;-79
2022/03/20 03:01:51;;;;;;;26.95;12.13;;;3.40;79.60;;;;;;4126204;28;20030;-79
2022/03/20 03:03:53;;;;;;;31.38;12.23;;;3.30;79.60;;;;;;4123769;28;20400;-79
2022/03/20 03:05:56;;;;;;;32.00;13.33;;;3.30;79.60;;;;;;4130495;28;20045;-79
2022/03/20 03:12:35;;;;;;;27.80;13.60;;;3.30;79.70;;;;;;4147152;28;20612;-79
2022/03/20 03:16:55;;;;;;;31.60;13.75;;;3.20;79.60;;;;;;4134236;28;20427;-78
2022/03/20 03:18:56;;;;;;;29.40;12.88;;;3.20;80.40;;;;;;4124000;28;20092;-78
2022/03/20 03:20:57;;;;;;;31.15;13.43;;;3.20;80.40;;;;;;4134496;28;20034;-78
2022/03/20 03:22:58;;;;;;;33.97;13.00;;;3.20;79.80;;;;;;4131483;28;20041;-78
2022/03/20 03:24:58;;;;;;;29.50;13.32;;;3.10;79.70;;;;;;4128718;28;20081;-78
2022/03/20 03:26:59;;;;;;;28.92;13.35;;;3.20;79.90;;;;;;4131667;28;20026;-78
2022/03/20 03:29:00;;;;;;;34.92;14.23;;;3.20;79.90;;;;;;4110209;28;20031;-78
2022/03/20 03:31:02;;;;;;;26.58;13.43;;;3.20;80.00;;;;;;4132956;28;20404;-78
2022/03/20 03:33:02;;;;;;;27.98;13.00;;;3.10;79.90;;;;;;4129470;28;20042;-79
2022/03/20 03:37:22;;;;;;;31.77;15.98;;;3.20;80.00;;;;;;4133810;28;20092;-80
2022/03/20 03:39:23;;;;;;;30.60;15.00;;;3.20;80.00;;;;;;4149393;28;20037;-79
2022/03/20 03:41:24;;;;;;;30.58;15.25;;;3.20;80.10;;;;;;4134900;28;20609;-79
2022/03/20 03:43:30;;;;;;;29.95;15.27;;;3.20;79.90;;;;;;4128653;28;20074;-79
2022/03/20 03:45:30;;;;;;;27.20;13.75;;;3.20;79.80;;;;;;4127950;28;20031;-80
2022/03/20 03:47:31;;;;;;;35.45;14.02;;;3.20;80.00;;;;;;4125792;28;20121;-79
2022/03/20 03:49:33;;;;;;;33.65;14.48;;;3.10;80.10;;;;;;4130298;28;20022;-79
2022/03/20 03:51:34;;;;;;;27.42;13.15;;;3.10;80.20;;;;;;4129163;28;20046;-78
2022/03/20 03:53:34;;;;;;;25.25;12.90;;;3.10;80.00;;;;;;4148951;28;20029;-78
2022/03/20 03:55:35;;;;;;;27.48;12.75;;;3.10;80.00;;;;;;4130437;28;20038;-78
2022/03/20 03:57:36;;;;;;;26.85;12.52;;;3.10;80.00;;;;;;4126799;28;20022;-78
2022/03/20 03:59:36;;;;;;;28.48;12.95;;;3.10;80.10;;;;;;4126450;28;20428;-78
2022/03/20 04:01:37;;;;;;;22.15;12.07;;;3.10;80.90;;;;;;4124698;28;20121;-78
2022/03/20 04:03:38;;;;;;;29.30;13.20;;;3.10;80.20;;;;;;4115721;28;20133;-78
2022/03/20 04:05:38;;;;;;;27.95;11.43;;;3.10;80.20;;;;;;4127739;28;20025;-78
2022/03/20 04:07:39;;;;;;;25.17;12.50;;;3.10;80.30;;;;;;4112238;28;20061;-78
2022/03/20 04:09:39;;;;;;;27.02;12.40;;;3.10;80.40;;;;;;4127752;28;20061;-78
2022/03/20 04:11:40;;;;;;;23.73;11.80;;;3.00;80.20;;;;;;4127122;28;20106;-78
2022/03/20 04:13:41;;;;;;;23.45;12.75;;;3.00;80.30;;;;;;4129369;28;20500;-78
2022/03/20 04:15:41;;;;;;;26.52;12.32;;;3.00;80.30;;;;;;4126451;28;20073;-78
2022/03/20 04:17:42;;;;;;;26.40;13.00;;;3.00;80.30;;;;;;4136918;28;20053;-79
2022/03/20 04:19:43;;;;;;;27.67;12.82;;;3.00;80.40;;;;;;4097162;28;20039;-79
2022/03/20 04:21:44;;;;;;;25.23;12.52;;;3.00;80.40;;;;;;4133039;28;20595;-78
2022/03/20 04:23:45;;;;;;;26.60;13.10;;;3.00;80.40;;;;;;4111075;28;20039;-79
2022/03/20 04:25:46;;;;;;;29.35;12.95;;;2.90;80.40;;;;;;4109012;28;20548;-79
2022/03/20 04:27:47;;;;;;;26.92;13.38;;;2.90;80.50;;;;;;4126040;28;20022;-78
2022/03/20 04:29:48;;;;;;;27.30;12.30;;;2.90;80.40;;;;;;4113051;28;20106;-79
2022/03/20 04:31:49;;;;;;;28.08;12.88;;;2.90;80.40;;;;;;4145650;28;20029;-79
2022/03/20 04:33:50;;;;;;;23.92;12.27;;;2.90;80.50;;;;;;4134173;28;20030;-79
2022/03/20 04:35:51;;;;;;;32.88;13.95;;;2.90;80.50;;;;;;4128809;28;20065;-79
2022/03/20 04:37:52;;;;;;;29.60;15.45;;;2.90;80.50;;;;;;4111192;28;20031;-79
2022/03/20 04:39:53;;;;;;;34.95;16.02;;;2.90;80.80;;;;;;4111615;28;20066;-79
2022/03/20 04:41:54;;;;;;;43.17;16.55;;;2.80;80.60;;;;;;4095164;28;20027;-79
2022/03/20 04:43:55;;;;;;;35.47;16.92;;;2.90;80.70;;;;;;4128285;28;20108;-79
2022/03/20 04:45:55;;;;;;;37.60;15.73;;;2.90;80.60;;;;;;4129450;28;20034;-79
2022/03/20 04:59:32;;;;;;;36.60;16.35;;;2.80;80.60;;;;;;4093808;28;20552;-79
2022/03/20 05:01:33;;;;;;;34.92;16.25;;;2.80;80.70;;;;;;4110029;28;20113;-78
2022/03/20 05:03:35;;;;;;;31.20;16.08;;;2.80;80.70;;;;;;4123986;28;20034;-78
2022/03/20 05:05:36;;;;;;;33.50;16.35;;;2.80;80.80;;;;;;4106439;28;20169;-78
2022/03/20 05:07:37;;;;;;;31.25;15.70;;;2.80;80.90;;;;;;4145904;28;20026;-78
2022/03/20 05:14:16;;;;;;;34.80;15.77;;;2.80;81.10;;;;;;4143388;28;20034;-80
2022/03/20 05:16:17;;;;;;;34.45;15.45;;;2.80;81.20;;;;;;4128173;28;20048;-78
2022/03/20 05:18:19;;;;;;;29.35;16.02;;;2.70;81.20;;;;;;4127203;28;20030;-78
2022/03/20 05:20:22;;;;;;;25.25;14.27;;;2.80;81.40;;;;;;4139250;28;20124;-78
2022/03/20 05:22:23;;;;;;;28.60;15.75;;;2.80;81.40;;;;;;4123815;28;20023;-78
2022/03/20 05:24:23;;;;;;;30.17;13.95;;;2.80;81.50;;;;;;4106329;28;20045;-78
2022/03/20 05:26:24;;;;;;;30.48;15.48;;;2.80;82.30;;;;;;4139070;28;20057;-78
2022/03/20 05:28:24;;;;;;;29.05;14.95;;;2.80;81.50;;;;;;4113889;28;20069;-78
2022/03/20 05:30:25;;;;;;;32.35;14.88;;;2.80;81.50;;;;;;4106881;28;20037;-78
2022/03/20 05:32:26;;;;;;;32.63;14.57;;;2.90;81.40;;;;;;4111381;28;20444;-78
2022/03/20 05:34:26;;;;;;;26.25;14.30;;;2.80;81.40;;;;;;4131687;28;20022;-78
2022/03/20 05:36:29;;;;;;;26.77;13.65;;;2.90;81.40;;;;;;4128984;28;20045;-78
2022/03/20 05:38:30;;;;;;;34.08;14.82;;;2.90;81.50;;;;;;4125632;28;21520;-78
2022/03/20 05:40:31;;;;;;;33.55;14.48;;;2.90;81.40;;;;;;4143155;28;20049;-78
2022/03/20 05:42:32;;;;;;;25.30;14.45;;;2.90;81.50;;;;;;4110737;28;20057;-78
2022/03/20 05:44:35;;;;;;;30.65;13.65;;;2.90;81.60;;;;;;4147306;28;20037;-78
2022/03/20 05:46:36;;;;;;;28.27;13.80;;;2.90;81.50;;;;;;4129805;28;20559;-78
2022/03/20 05:48:37;;;;;;;28.10;14.75;;;2.90;81.50;;;;;;4129309;28;20107;-79
2022/03/20 05:50:38;;;;;;;36.17;14.60;;;2.90;81.60;;;;;;4133376;28;20034;-79
2022/03/20 05:52:38;;;;;;;31.13;14.18;;;2.90;81.50;;;;;;4124570;28;20504;-79
2022/03/20 05:54:39;;;;;;;30.42;13.57;;;2.90;81.40;;;;;;4107138;28;20030;-79
2022/03/20 05:58:59;;;;;;;27.73;13.60;;;2.90;81.40;;;;;;4142309;28;20022;-78
2022/03/20 06:00:59;;;;;;;33.92;14.82;;;2.90;81.40;;;;;;4127333;28;20492;-79
2022/03/20 06:03:01;;;;;;;32.58;13.95;;;2.90;81.30;;;;;;4127646;28;20041;-79
2022/03/20 06:05:02;;;;;;;31.98;14.68;;;3.00;81.40;;;;;;4107350;28;20049;-79
2022/03/20 06:07:03;;;;;;;27.20;12.73;;;2.90;81.20;;;;;;4128226;28;20054;-79
2022/03/20 06:09:04;;;;;;;23.23;13.07;;;3.00;81.30;;;;;;4142621;28;20042;-79
2022/03/20 06:11:06;;;;;;;29.85;13.50;;;3.00;81.40;;;;;;4146903;28;20076;-79
2022/03/20 06:13:08;;;;;;;30.83;13.38;;;3.00;81.30;;;;;;4109554;28;20035;-78
2022/03/20 06:15:09;;;;;;;26.50;12.43;;;3.00;81.20;;;;;;4143725;28;20128;-78
2022/03/20 06:17:10;;;;;;;27.17;12.77;;;3.00;81.20;;;;;;4128957;28;20057;-79
2022/03/20 06:19:10;;;;;;;23.63;11.75;;;3.00;81.20;;;;;;4142257;28;20399;-79
2022/03/20 06:21:11;;;;;;;23.10;12.10;;;3.00;81.20;;;;;;4109430;28;20126;-79
2022/03/20 06:23:12;;;;;;;28.13;12.90;;;3.10;81.20;;;;;;4122692;28;20101;-79
2022/03/20 06:25:15;;;;;;;27.10;13.68;;;3.00;81.20;;;;;;4090638;29;20030;-79
2022/03/20 06:27:15;;;;;;;31.00;13.50;;;3.00;81.00;;;;;;4122811;28;20034;-79
2022/03/20 06:29:17;;;;;;;28.38;13.60;;;3.00;80.90;;;;;;4141138;28;20538;-79
2022/03/20 06:31:19;;;;;;;24.50;12.98;;;3.00;80.90;;;;;;4127040;28;20030;-79
2022/03/20 06:33:20;;;;;;;27.77;13.65;;;3.00;80.90;;;;;;4128752;28;20415;-79
2022/03/20 06:35:21;;;;;;;23.63;12.85;;;3.00;80.80;;;;;;4129716;28;20114;-79
2022/03/20 06:37:22;;;;;;;30.85;12.18;;;3.00;80.80;;;;;;4142495;28;20018;-79
2022/03/20 06:39:23;;;;;;;27.98;13.52;;;3.00;80.70;;;;;;4109174;28;20052;-79
2022/03/20 06:41:23;;;;;;;26.33;13.13;;;3.00;80.70;;;;;;4126416;28;20031;-79
2022/03/20 06:43:24;;;;;;;26.80;13.88;;;3.00;80.70;;;;;;4132869;28;20101;-79
2022/03/20 06:45:25;;;;;;;28.77;13.63;;;3.00;80.70;;;;;;4127012;28;20030;-79
2022/03/20 06:47:26;;;;;;;26.17;11.85;;;3.10;80.50;;;;;;4128508;28;20048;-79
2022/03/20 06:49:27;;;;;;;20.95;11.82;;;3.10;80.50;;;;;;4143291;28;20529;-79
2022/03/20 06:51:28;;;;;;;27.70;12.98;;;3.10;80.60;;;;;;4130414;28;20022;-79
2022/03/20 06:53:29;;;;;;;24.42;13.20;;;3.10;80.70;;;;;;4113551;28;20443;-78
2022/03/20 06:55:33;;;;;;;27.77;12.88;;;3.10;80.70;;;;;;4125244;28;20023;-79
2022/03/20 06:57:33;;;;;;;26.55;13.07;;;3.20;80.70;;;;;;4127377;28;20395;-79
2022/03/20 06:59:34;;;;;;;25.90;12.45;;;3.20;80.70;;;;;;4108545;28;20114;-80
2022/03/20 07:01:35;;;;;;;31.65;13.77;;;3.20;80.80;;;;;;4129734;28;20045;-80
2022/03/20 07:03:35;;;;;;;26.98;13.10;;;3.30;80.90;;;;;;4126972;28;20053;-79
2022/03/20 07:05:39;;;;;;;26.13;13.52;;;3.30;80.70;;;;;;4126287;28;20038;-79
2022/03/20 07:07:51;;;;;;;30.88;13.90;;;3.30;80.30;;;;;;4137593;28;20042;-79
2022/03/20 07:09:51;;;;;;;23.23;12.95;;;3.30;79.90;;;;;;4145372;28;20116;-80
2022/03/20 07:11:52;;;;;;;29.98;14.07;;;3.30;79.40;;;;;;4128237;28;20061;-80
2022/03/20 07:13:53;;;;;;;29.83;14.05;;;3.30;79.20;;;;;;4141466;28;20107;-79
2022/03/20 07:15:56;;;;;;;28.52;14.13;;;3.30;79.20;;;;;;4128752;28;20097;-80
2022/03/20 07:17:58;;;;;;;23.27;12.02;;;3.30;79.30;;;;;;4139969;28;20034;-80
2022/03/20 07:19:59;;;;;;;30.02;13.68;;;3.40;79.50;;;;;;4140819;28;20038;-80
2022/03/20 07:22:00;;;;;;;28.48;13.30;;;3.40;79.40;;;;;;4142311;28;20097;-79
2022/03/20 07:24:05;;;;;;;32.58;14.63;;;3.40;79.20;;;;;;4108223;28;20305;-80
2022/03/20 07:30:47;;;;;;;30.55;13.60;;;3.50;78.50;;;;;;4126531;28;20083;-80
2022/03/20 07:32:48;;;;;;;28.63;12.68;;;3.50;78.50;;;;;;4125226;28;20516;-79
2022/03/20 07:34:48;;;;;;;32.58;14.18;;;3.50;78.50;;;;;;4093221;28;20034;-80
2022/03/20 07:36:50;;;;;;;28.70;13.32;;;3.50;78.40;;;;;;4095527;28;20038;-79
2022/03/20 07:38:50;;;;;;;27.88;13.98;;;3.50;78.50;;;;;;4109823;28;20030;-79
2022/03/20 07:40:51;;;;;;;26.58;13.27;;;3.50;78.50;;;;;;4126874;28;20396;-79
2022/03/20 07:42:52;;;;;;;25.73;12.60;;;3.50;78.50;;;;;;4114465;28;20042;-79
2022/03/20 07:44:52;;;;;;;30.45;13.65;;;3.50;78.40;;;;;;4129625;28;20105;-79
2022/03/20 07:46:54;;;;;;;25.30;12.77;;;3.60;78.50;;;;;;4128406;28;20018;-79
2022/03/20 07:48:54;;;;;;;24.75;12.95;;;3.60;78.10;;;;;;4108624;28;20121;-79
2022/03/20 07:50:55;;;;;;;27.77;11.65;;;3.60;77.80;;;;;;4126694;28;20662;-79
2022/03/20 07:52:59;;;;;;;25.42;12.25;;;3.60;77.70;;;;;;4126580;28;20125;-79
2022/03/20 07:55:01;;;;;;;25.73;12.85;;;3.70;77.70;;;;;;4096777;28;20035;-79
2022/03/20 07:57:05;;;;;;;27.27;13.23;;;3.70;77.60;;;;;;4143955;28;20415;-79
2022/03/20 07:59:06;;;;;;;31.42;12.85;;;3.70;77.20;;;;;;4124321;28;20109;-79
2022/03/20 08:01:07;;;;;;;28.20;14.00;;;3.70;77.10;;;;;;4140520;28;20072;-79
2022/03/20 08:03:08;;;;;;;30.33;13.63;;;3.70;76.90;;;;;;4125984;28;20160;-79
2022/03/20 08:05:09;;;;;;;24.08;12.30;;;3.70;76.80;;;;;;4124663;28;20074;-79
2022/03/20 08:07:10;;;;;;;25.80;12.38;;;3.70;76.80;;;;;;4123093;28;20108;-79
2022/03/20 08:09:11;;;;;;;29.33;12.18;;;3.80;76.90;;;;;;4123394;28;20026;-79
2022/03/20 08:11:15;;;;;;;27.08;12.65;;;3.80;77.00;;;;;;4123636;28;20042;-79
2022/03/20 08:13:15;;;;;;;34.78;13.15;;;3.80;76.90;;;;;;4143223;28;20041;-79
2022/03/20 08:15:19;;;;;;;29.45;12.27;;;3.90;76.90;;;;;;4126755;28;20693;-80
2022/03/20 08:17:20;;;;;;;27.52;13.07;;;4.00;76.70;;;;;;4139448;28;20549;-80
2022/03/20 08:19:23;;;;;;;30.48;13.55;;;4.00;76.30;;;;;;4108045;28;20022;-79
2022/03/20 08:21:24;;;;;;;31.25;13.65;;;4.00;76.20;;;;;;4113433;28;20476;-79
2022/03/20 08:23:24;;;;;;;27.60;12.95;;;4.00;76.00;;;;;;4126875;28;20566;-80
2022/03/20 08:25:26;;;;;;;25.77;13.30;;;4.10;75.70;;;;;;4135365;28;20018;-79
2022/03/20 08:27:27;;;;;;;29.45;14.00;;;4.10;75.50;;;;;;4128756;28;20109;-79
2022/03/20 08:29:28;;;;;;;25.42;12.30;;;4.10;75.00;;;;;;4142912;28;20024;-79
2022/03/20 08:31:28;;;;;;;30.55;13.95;;;4.10;74.40;;;;;;4124474;28;20049;-78
2022/03/20 08:33:30;;;;;;;27.75;13.75;;;4.10;74.50;;;;;;4126726;28;20407;-79
2022/03/20 08:35:31;;;;;;;31.10;13.27;;;4.20;74.50;;;;;;4122701;28;20030;-80
2022/03/20 08:37:32;;;;;;;26.63;13.02;;;4.20;74.60;;;;;;4124887;28;20034;-80
2022/03/20 08:39:32;;;;;;;27.95;13.50;;;4.20;74.70;;;;;;4122593;28;20104;-80
2022/03/20 08:41:33;;;;;;;32.83;13.52;;;4.30;74.40;;;;;;4126168;28;20056;-80
2022/03/20 08:43:34;;;;;;;27.00;12.38;;;4.30;73.00;;;;;;4124211;28;20484;-80
2022/03/20 08:45:34;;;;;;;23.60;12.93;;;4.30;72.50;;;;;;4124398;28;20125;-80
2022/03/20 08:47:37;;;;;;;25.60;11.95;;;4.40;72.60;;;;;;4109962;28;20058;-80
2022/03/20 08:49:37;;;;;;;28.45;12.90;;;4.40;72.70;;;;;;4140019;28;21585;-80
2022/03/20 08:51:39;;;;;;;28.13;12.73;;;4.40;72.60;;;;;;4124812;28;20031;-80
2022/03/20 08:53:40;;;;;;;25.23;12.00;;;4.40;71.90;;;;;;4121304;28;20042;-80
2022/03/20 08:55:40;;;;;;;29.90;13.30;;;4.50;72.30;;;;;;4126540;28;20027;-80
2022/03/20 08:57:46;;;;;;;26.25;11.82;;;4.50;72.00;;;;;;4127355;28;20041;-80
2022/03/20 08:59:46;;;;;;;26.52;12.68;;;4.50;72.00;;;;;;4122566;28;20025;-80
2022/03/20 09:01:48;;;;;;;24.35;12.48;;;4.50;72.20;;;;;;4140870;28;20546;-80
2022/03/20 09:03:52;;;;;;;31.55;12.52;;;4.60;72.40;;;;;;4120409;28;20522;-80
2022/03/20 09:05:54;;;;;;;26.92;12.23;;;4.60;72.50;;;;;;4139616;28;20053;-80
2022/03/20 09:07:57;;;;;;;30.42;12.25;;;4.70;71.80;;;;;;4133863;28;20095;-80
2022/03/20 09:09:58;;;;;;;26.00;12.63;;;4.70;71.50;;;;;;4106293;28;20445;-80
2022/03/20 09:11:59;;;;;;;26.00;12.02;;;4.70;71.10;;;;;;4120304;28;20069;-80
2022/03/20 09:14:00;;;;;;;24.67;11.80;;;4.80;69.90;;;;;;4108995;28;20078;-80
2022/03/20 09:20:40;;;;;;;23.60;11.45;;;4.80;70.30;;;;;;4136269;28;20060;-80
2022/03/20 09:22:41;;;;;;;21.90;11.52;;;4.90;70.00;;;;;;4130272;28;20145;-80
2022/03/20 09:24:42;;;;;;;24.27;11.75;;;5.00;69.60;;;;;;4125027;28;20149;-80
2022/03/20 09:26:43;;;;;;;26.25;13.10;;;5.00;68.70;;;;;;4091697;28;20078;-80
2022/03/20 09:28:44;;;;;;;27.60;12.70;;;5.00;68.20;;;;;;4127300;28;20029;-79
2022/03/20 09:30:44;;;;;;;31.15;13.45;;;5.00;67.80;;;;;;4138565;28;20030;-79
2022/03/20 09:32:45;;;;;;;31.48;12.93;;;5.00;67.90;;;;;;4112325;28;20050;-79
2022/03/20 09:34:46;;;;;;;26.77;13.40;;;5.00;67.80;;;;;;4134557;28;20117;-79
2022/03/20 09:36:47;;;;;;;28.20;12.32;;;5.00;68.00;;;;;;4120574;28;20039;-80
2022/03/20 09:38:47;;;;;;;27.65;12.38;;;5.10;68.20;;;;;;4119034;28;20022;-80
2022/03/20 09:40:48;;;;;;;31.73;13.35;;;5.10;68.30;;;;;;4149610;28;20025;-79
2022/03/20 09:42:49;;;;;;;32.28;13.38;;;5.20;68.30;;;;;;4110606;28;20506;-80
2022/03/20 09:44:50;;;;;;;27.90;12.52;;;5.20;67.80;;;;;;4128846;28;20109;-80
2022/03/20 09:46:51;;;;;;;25.60;12.90;;;5.30;67.10;;;;;;4105775;28;20034;-79
2022/03/20 09:48:52;;;;;;;25.90;12.70;;;5.30;66.70;;;;;;4125203;28;20245;-79
2022/03/20 09:50:54;;;;;;;27.85;12.77;;;5.30;66.30;;;;;;4103600;28;20035;-79
2022/03/20 09:52:54;;;;;;;26.65;13.20;;;5.30;66.30;;;;;;4125030;28;20031;-79
2022/03/20 09:54:58;;;;;;;26.10;12.43;;;5.40;66.30;;;;;;4130050;28;20117;-79
2022/03/20 09:57:03;;;;;;;29.08;13.68;;;5.40;66.20;;;;;;4111645;28;20030;-79
2022/03/20 09:59:04;;;;;;;32.88;14.73;;;5.40;65.70;;;;;;4115210;28;20093;-79
2022/03/20 10:01:04;;;;;;;29.95;12.68;;;5.40;64.70;;;;;;4114918;28;20038;-79
2022/03/20 10:03:15;;;;;;;28.83;13.32;;;5.50;64.90;;;;;;4134833;28;20049;-79
2022/03/20 10:05:21;;;;;;;26.05;12.32;;;5.50;64.70;;;;;;4104366;28;20097;-80
2022/03/20 10:07:26;;;;;;;36.60;12.90;;;5.50;65.10;;;;;;4118177;28;20034;-80
2022/03/20 10:09:26;;;;;;;29.83;13.73;;;5.60;65.10;;;;;;4107497;28;20038;-79
2022/03/20 10:11:30;;;;;;;28.27;12.43;;;5.60;64.80;;;;;;4125690;28;20082;-79
2022/03/20 10:13:32;;;;;;;27.80;12.43;;;5.70;64.80;;;;;;4131379;28;20171;-79
2022/03/20 10:15:37;;;;;;;29.05;13.35;;;5.80;63.90;;;;;;4117125;28;20035;-79
2022/03/20 10:17:38;;;;;;;29.23;13.07;;;5.80;63.90;;;;;;4122690;28;20065;-79
2022/03/20 10:19:39;;;;;;;27.17;13.65;;;5.80;62.90;;;;;;4131585;28;20038;-79
2022/03/20 10:21:44;;;;;;;26.33;13.02;;;5.90;62.20;;;;;;4098668;28;20487;-79
2022/03/20 10:23:46;;;;;;;29.58;13.25;;;5.90;61.00;;;;;;4101369;28;20055;-79
2022/03/20 10:25:51;;;;;;;27.67;12.10;;;5.90;60.70;;;;;;4103165;28;20085;-79
2022/03/20 10:27:58;;;;;;;27.25;13.43;;;5.90;60.90;;;;;;4111413;28;20061;-80
2022/03/20 10:30:00;;;;;;;29.15;13.00;;;5.90;60.50;;;;;;4115039;28;20233;-80
2022/03/20 10:32:08;;;;;;;27.95;13.55;;;5.90;60.30;;;;;;4117454;28;20125;-79
2022/03/20 10:34:09;;;;;;;25.42;12.07;;;6.00;60.00;;;;;;4130741;28;20030;-79
2022/03/20 10:36:17;;;;;;;35.80;14.90;;;6.00;59.70;;;;;;4132448;28;20069;-79
2022/03/20 10:38:36;;;;;;;29.70;13.20;;;6.10;59.70;;;;;;4117012;28;20656;-79
2022/03/20 10:40:36;;;;;;;36.05;13.85;;;6.20;59.20;;;;;;4102232;28;20570;-79
2022/03/20 10:42:37;;;;;;;26.90;12.30;;;6.20;58.00;;;;;;4116628;28;20073;-79
2022/03/20 10:44:38;;;;;;;28.45;11.70;;;6.20;58.30;;;;;;4119655;28;20384;-80
2022/03/20 10:46:39;;;;;;;29.95;12.10;;;6.20;58.40;;;;;;4114629;28;22193;-81
2022/03/20 10:49:00;;;;;;;28.92;13.30;;;6.20;57.80;;;;;;4109859;28;20041;-80
2022/03/20 10:51:01;;;;;;;31.92;13.80;;;6.20;58.00;;;;;;4110430;28;20034;-81
2022/03/20 10:53:06;;;;;;;30.55;14.52;;;6.20;58.50;;;;;;4116727;28;20385;-81
2022/03/20 10:55:09;;;;;;;28.65;12.75;;;6.20;58.30;;;;;;4129026;28;20042;-80
2022/03/20 10:57:13;;;;;;;26.92;13.85;;;6.20;57.60;;;;;;4118063;28;20396;-79
2022/03/20 10:59:14;;;;;;;33.75;13.80;;;6.20;57.60;;;;;;4129845;28;20686;-80
2022/03/20 11:01:17;;;;;;;35.25;16.10;;;6.30;57.80;;;;;;4112365;28;20061;-81
2022/03/20 11:03:22;;;;;;;34.35;13.82;;;6.30;57.40;;;;;;4116412;28;20034;-81